sensor_id;sensor_type;location;lat;lon;timestamp;P1;durP1;ratioP1;P2;durP2;ratioP2
351;SDS011;164;50.784;6.496;2024-03-17T00:01:36;6.30;;;3.58;;
351;SDS011;164;50.784;6.496;2024-03-17T00:04:03;3.55;;;3.45;;
351;SDS011;164;50.784;6.496;2024-03-17T00:06:32;4.13;;;2.95;;
351;SDS011;164;50.784;6.496;2024-03-17T00:08:58;4.65;;;3.45;;
351;SDS011;164;50.784;6.496;2024-03-17T00:11:27;2.85;;;2.33;;
351;SDS011;164;50.784;6.496;2024-03-17T00:13:56;2.90;;;2.42;;
351;SDS011;164;50.784;6.496;2024-03-17T00:16:23;3.40;;;3.10;;
351;SDS011;164;50.784;6.496;2024-03-17T00:18:49;5.53;;;2.50;;
351;SDS011;164;50.784;6.496;2024-03-17T00:21:16;3.65;;;3.22;;
351;SDS011;164;50.784;6.496;2024-03-17T00:23:46;3.85;;;2.75;;
351;SDS011;164;50.784;6.496;2024-03-17T00:26:14;3.35;;;2.78;;
351;SDS011;164;50.784;6.496;2024-03-17T00:28:40;3.78;;;2.25;;
351;SDS011;164;50.784;6.496;2024-03-17T00:31:11;2.80;;;2.60;;
351;SDS011;164;50.784;6.496;2024-03-17T00:33:39;3.33;;;2.47;;
351;SDS011;164;50.784;6.496;2024-03-17T00:36:07;2.60;;;2.40;;
351;SDS011;164;50.784;6.496;2024-03-17T00:38:33;3.08;;;2.75;;
351;SDS011;164;50.784;6.496;2024-03-17T00:41:03;2.70;;;2.50;;
351;SDS011;164;50.784;6.496;2024-03-17T00:43:31;3.38;;;3.05;;
351;SDS011;164;50.784;6.496;2024-03-17T00:45:58;2.83;;;2.50;;
351;SDS011;164;50.784;6.496;2024-03-17T00:48:25;3.08;;;2.17;;
351;SDS011;164;50.784;6.496;2024-03-17T00:50:55;3.65;;;3.05;;
351;SDS011;164;50.784;6.496;2024-03-17T00:53:21;3.35;;;2.55;;
351;SDS011;164;50.784;6.496;2024-03-17T00:55:52;3.78;;;2.50;;
351;SDS011;164;50.784;6.496;2024-03-17T00:58:20;3.88;;;2.58;;
351;SDS011;164;50.784;6.496;2024-03-17T01:00:48;4.82;;;2.90;;
351;SDS011;164;50.784;6.496;2024-03-17T01:03:14;3.03;;;2.85;;
351;SDS011;164;50.784;6.496;2024-03-17T01:05:42;2.92;;;2.50;;
351;SDS011;164;50.784;6.496;2024-03-17T01:08:09;2.22;;;2.08;;
351;SDS011;164;50.784;6.496;2024-03-17T01:10:37;2.92;;;2.72;;
351;SDS011;164;50.784;6.496;2024-03-17T01:13:03;2.70;;;2.50;;
351;SDS011;164;50.784;6.496;2024-03-17T01:15:33;2.55;;;2.28;;
351;SDS011;164;50.784;6.496;2024-03-17T01:17:59;4.60;;;3.17;;
351;SDS011;164;50.784;6.496;2024-03-17T01:20:27;3.25;;;3.05;;
351;SDS011;164;50.784;6.496;2024-03-17T01:22:53;2.47;;;2.30;;
351;SDS011;164;50.784;6.496;2024-03-17T01:25:21;3.33;;;2.97;;
351;SDS011;164;50.784;6.496;2024-03-17T01:27:47;2.20;;;2.00;;
351;SDS011;164;50.784;6.496;2024-03-17T01:30:14;2.90;;;2.70;;
351;SDS011;164;50.784;6.496;2024-03-17T01:32:42;3.60;;;2.45;;
351;SDS011;164;50.784;6.496;2024-03-17T01:35:09;2.40;;;2.20;;
351;SDS011;164;50.784;6.496;2024-03-17T01:37:37;2.67;;;2.50;;
351;SDS011;164;50.784;6.496;2024-03-17T01:40:05;5.00;;;2.50;;
351;SDS011;164;50.784;6.496;2024-03-17T01:42:33;2.50;;;2.25;;
351;SDS011;164;50.784;6.496;2024-03-17T01:45:00;3.08;;;2.22;;
351;SDS011;164;50.784;6.496;2024-03-17T01:47:26;3.22;;;3.03;;
351;SDS011;164;50.784;6.496;2024-03-17T01:49:55;2.80;;;2.10;;
351;SDS011;164;50.784;6.496;2024-03-17T01:52:21;2.35;;;2.22;;
351;SDS011;164;50.784;6.496;2024-03-17T01:54:49;3.25;;;2.50;;
351;SDS011;164;50.784;6.496;2024-03-17T01:57:15;2.53;;;2.25;;
351;SDS011;164;50.784;6.496;2024-03-17T01:59:42;2.47;;;2.22;;
351;SDS011;164;50.784;6.496;2024-03-17T02:02:09;2.80;;;2.28;;
351;SDS011;164;50.784;6.496;2024-03-17T02:04:36;2.75;;;1.90;;
351;SDS011;164;50.784;6.496;2024-03-17T02:07:04;4.03;;;2.45;;
351;SDS011;164;50.784;6.496;2024-03-17T02:09:31;4.03;;;2.63;;
351;SDS011;164;50.784;6.496;2024-03-17T02:11:57;2.47;;;2.30;;
351;SDS011;164;50.784;6.496;2024-03-17T02:14:25;2.90;;;2.72;;
351;SDS011;164;50.784;6.496;2024-03-17T02:16:52;2.60;;;2.38;;
351;SDS011;164;50.784;6.496;2024-03-17T02:19:21;2.22;;;2.03;;
351;SDS011;164;50.784;6.496;2024-03-17T02:21:49;3.58;;;2.28;;
351;SDS011;164;50.784;6.496;2024-03-17T02:24:16;3.70;;;2.90;;
351;SDS011;164;50.784;6.496;2024-03-17T02:26:44;2.95;;;2.45;;
351;SDS011;164;50.784;6.496;2024-03-17T02:29:11;5.13;;;2.53;;
351;SDS011;164;50.784;6.496;2024-03-17T02:31:40;2.47;;;2.25;;
351;SDS011;164;50.784;6.496;2024-03-17T02:34:06;3.58;;;2.17;;
351;SDS011;164;50.784;6.496;2024-03-17T02:36:34;2.45;;;2.15;;
351;SDS011;164;50.784;6.496;2024-03-17T02:39:00;3.53;;;2.60;;
351;SDS011;164;50.784;6.496;2024-03-17T02:41:46;4.60;;;3.05;;
351;SDS011;164;50.784;6.496;2024-03-17T02:44:14;2.95;;;2.13;;
351;SDS011;164;50.784;6.496;2024-03-17T02:46:41;2.53;;;2.35;;
351;SDS011;164;50.784;6.496;2024-03-17T02:49:09;2.60;;;2.40;;
351;SDS011;164;50.784;6.496;2024-03-17T02:51:39;3.20;;;2.30;;
351;SDS011;164;50.784;6.496;2024-03-17T02:54:06;5.85;;;1.90;;
351;SDS011;164;50.784;6.496;2024-03-17T02:56:34;2.92;;;2.38;;
351;SDS011;164;50.784;6.496;2024-03-17T02:59:03;4.05;;;2.17;;
351;SDS011;164;50.784;6.496;2024-03-17T03:01:31;2.50;;;2.28;;
351;SDS011;164;50.784;6.496;2024-03-17T03:03:59;2.22;;;1.95;;
351;SDS011;164;50.784;6.496;2024-03-17T03:06:27;3.15;;;2.20;;
351;SDS011;164;50.784;6.496;2024-03-17T03:08:54;2.50;;;2.30;;
351;SDS011;164;50.784;6.496;2024-03-17T03:11:21;4.50;;;2.47;;
351;SDS011;164;50.784;6.496;2024-03-17T03:13:48;2.53;;;2.33;;
351;SDS011;164;50.784;6.496;2024-03-17T03:16:17;3.10;;;2.42;;
351;SDS011;164;50.784;6.496;2024-03-17T03:18:45;3.05;;;2.60;;
351;SDS011;164;50.784;6.496;2024-03-17T03:21:12;3.95;;;2.40;;
351;SDS011;164;50.784;6.496;2024-03-17T03:23:40;2.47;;;2.15;;
351;SDS011;164;50.784;6.496;2024-03-17T03:26:07;4.32;;;2.25;;
351;SDS011;164;50.784;6.496;2024-03-17T03:28:35;2.20;;;2.05;;
351;SDS011;164;50.784;6.496;2024-03-17T03:31:03;3.33;;;2.25;;
351;SDS011;164;50.784;6.496;2024-03-17T03:33:33;3.83;;;2.45;;
351;SDS011;164;50.784;6.496;2024-03-17T03:36:06;2.70;;;2.30;;
351;SDS011;164;50.784;6.496;2024-03-17T03:38:34;3.78;;;2.15;;
351;SDS011;164;50.784;6.496;2024-03-17T03:41:05;1.88;;;1.77;;
351;SDS011;164;50.784;6.496;2024-03-17T03:43:32;2.72;;;2.22;;
351;SDS011;164;50.784;6.496;2024-03-17T03:46:01;3.05;;;2.35;;
351;SDS011;164;50.784;6.496;2024-03-17T03:48:28;4.55;;;1.80;;
351;SDS011;164;50.784;6.496;2024-03-17T03:50:57;2.80;;;2.15;;
351;SDS011;164;50.784;6.496;2024-03-17T03:53:25;3.65;;;1.88;;
351;SDS011;164;50.784;6.496;2024-03-17T03:55:52;2.55;;;2.17;;
351;SDS011;164;50.784;6.496;2024-03-17T03:58:19;2.25;;;1.85;;
351;SDS011;164;50.784;6.496;2024-03-17T04:00:47;2.60;;;2.35;;
351;SDS011;164;50.784;6.496;2024-03-17T04:03:14;3.40;;;2.40;;
351;SDS011;164;50.784;6.496;2024-03-17T04:05:41;3.28;;;2.40;;
351;SDS011;164;50.784;6.496;2024-03-17T04:08:10;5.30;;;2.55;;
351;SDS011;164;50.784;6.496;2024-03-17T04:10:38;2.60;;;2.10;;
351;SDS011;164;50.784;6.496;2024-03-17T04:13:05;1.88;;;1.83;;
351;SDS011;164;50.784;6.496;2024-03-17T04:15:33;2.35;;;2.13;;
351;SDS011;164;50.784;6.496;2024-03-17T04:18:00;2.55;;;1.67;;
351;SDS011;164;50.784;6.496;2024-03-17T04:20:28;2.97;;;2.80;;
351;SDS011;164;50.784;6.496;2024-03-17T04:22:56;3.05;;;1.88;;
351;SDS011;164;50.784;6.496;2024-03-17T04:25:26;3.63;;;2.22;;
351;SDS011;164;50.784;6.496;2024-03-17T04:27:53;5.60;;;2.22;;
351;SDS011;164;50.784;6.496;2024-03-17T04:30:21;2.65;;;1.90;;
351;SDS011;164;50.784;6.496;2024-03-17T04:32:47;2.10;;;1.85;;
351;SDS011;164;50.784;6.496;2024-03-17T04:35:21;2.72;;;1.88;;
351;SDS011;164;50.784;6.496;2024-03-17T04:37:55;2.10;;;1.95;;
351;SDS011;164;50.784;6.496;2024-03-17T04:40:25;1.75;;;1.70;;
351;SDS011;164;50.784;6.496;2024-03-17T04:42:53;3.03;;;2.33;;
351;SDS011;164;50.784;6.496;2024-03-17T04:45:21;2.72;;;2.20;;
351;SDS011;164;50.784;6.496;2024-03-17T04:47:48;3.22;;;2.00;;
351;SDS011;164;50.784;6.496;2024-03-17T04:50:15;1.92;;;1.80;;
351;SDS011;164;50.784;6.496;2024-03-17T04:52:43;1.80;;;1.50;;
351;SDS011;164;50.784;6.496;2024-03-17T04:55:11;2.97;;;2.25;;
351;SDS011;164;50.784;6.496;2024-03-17T04:57:40;3.97;;;2.88;;
351;SDS011;164;50.784;6.496;2024-03-17T05:00:07;2.30;;;2.05;;
351;SDS011;164;50.784;6.496;2024-03-17T05:02:37;2.65;;;1.80;;
351;SDS011;164;50.784;6.496;2024-03-17T05:05:04;7.18;;;2.30;;
351;SDS011;164;50.784;6.496;2024-03-17T05:07:33;3.67;;;2.10;;
351;SDS011;164;50.784;6.496;2024-03-17T05:10:00;3.55;;;2.35;;
351;SDS011;164;50.784;6.496;2024-03-17T05:12:28;2.10;;;1.95;;
351;SDS011;164;50.784;6.496;2024-03-17T05:14:57;1.52;;;1.42;;
351;SDS011;164;50.784;6.496;2024-03-17T05:17:24;5.28;;;2.05;;
351;SDS011;164;50.784;6.496;2024-03-17T05:19:51;2.58;;;2.03;;
351;SDS011;164;50.784;6.496;2024-03-17T05:22:19;2.45;;;1.80;;
351;SDS011;164;50.784;6.496;2024-03-17T05:24:46;2.28;;;2.05;;
351;SDS011;164;50.784;6.496;2024-03-17T05:27:13;3.33;;;1.80;;
351;SDS011;164;50.784;6.496;2024-03-17T05:29:41;2.13;;;1.67;;
351;SDS011;164;50.784;6.496;2024-03-17T05:32:09;2.15;;;1.92;;
351;SDS011;164;50.784;6.496;2024-03-17T05:34:37;2.13;;;2.00;;
351;SDS011;164;50.784;6.496;2024-03-17T05:37:04;2.20;;;1.90;;
351;SDS011;164;50.784;6.496;2024-03-17T05:39:32;2.35;;;2.17;;
351;SDS011;164;50.784;6.496;2024-03-17T05:41:59;3.40;;;2.10;;
351;SDS011;164;50.784;6.496;2024-03-17T05:44:28;1.98;;;1.50;;
351;SDS011;164;50.784;6.496;2024-03-17T05:47:05;1.77;;;1.33;;
351;SDS011;164;50.784;6.496;2024-03-17T05:49:35;3.58;;;2.15;;
351;SDS011;164;50.784;6.496;2024-03-17T05:52:02;2.45;;;1.90;;
351;SDS011;164;50.784;6.496;2024-03-17T05:54:29;1.80;;;1.30;;
351;SDS011;164;50.784;6.496;2024-03-17T05:56:57;3.80;;;1.92;;
351;SDS011;164;50.784;6.496;2024-03-17T05:59:24;2.42;;;1.90;;
351;SDS011;164;50.784;6.496;2024-03-17T06:01:51;1.70;;;1.65;;
351;SDS011;164;50.784;6.496;2024-03-17T06:04:19;2.20;;;2.00;;
351;SDS011;164;50.784;6.496;2024-03-17T06:06:48;2.55;;;1.92;;
351;SDS011;164;50.784;6.496;2024-03-17T06:09:15;1.77;;;1.70;;
351;SDS011;164;50.784;6.496;2024-03-17T06:11:45;3.63;;;2.63;;
351;SDS011;164;50.784;6.496;2024-03-17T06:14:13;3.22;;;2.25;;
351;SDS011;164;50.784;6.496;2024-03-17T06:16:40;1.58;;;1.48;;
351;SDS011;164;50.784;6.496;2024-03-17T06:19:09;2.95;;;1.90;;
351;SDS011;164;50.784;6.496;2024-03-17T06:21:36;1.55;;;1.45;;
351;SDS011;164;50.784;6.496;2024-03-17T06:24:06;2.53;;;2.00;;
351;SDS011;164;50.784;6.496;2024-03-17T06:26:34;2.20;;;2.00;;
351;SDS011;164;50.784;6.496;2024-03-17T06:29:02;2.80;;;2.00;;
351;SDS011;164;50.784;6.496;2024-03-17T06:31:29;2.35;;;1.92;;
351;SDS011;164;50.784;6.496;2024-03-17T06:33:59;2.65;;;1.98;;
351;SDS011;164;50.784;6.496;2024-03-17T06:36:26;2.42;;;1.85;;
351;SDS011;164;50.784;6.496;2024-03-17T06:38:54;2.80;;;2.17;;
351;SDS011;164;50.784;6.496;2024-03-17T06:41:23;2.65;;;1.92;;
351;SDS011;164;50.784;6.496;2024-03-17T06:43:50;1.92;;;1.83;;
351;SDS011;164;50.784;6.496;2024-03-17T06:46:17;2.90;;;2.30;;
351;SDS011;164;50.784;6.496;2024-03-17T06:48:45;2.95;;;2.47;;
351;SDS011;164;50.784;6.496;2024-03-17T06:51:12;3.15;;;2.22;;
351;SDS011;164;50.784;6.496;2024-03-17T06:53:39;1.67;;;1.58;;
351;SDS011;164;50.784;6.496;2024-03-17T06:56:07;2.08;;;1.95;;
351;SDS011;164;50.784;6.496;2024-03-17T06:58:36;2.75;;;2.08;;
351;SDS011;164;50.784;6.496;2024-03-17T07:01:03;2.67;;;1.83;;
351;SDS011;164;50.784;6.496;2024-03-17T07:03:31;3.05;;;1.80;;
351;SDS011;164;50.784;6.496;2024-03-17T07:05:59;4.80;;;2.03;;
351;SDS011;164;50.784;6.496;2024-03-17T07:08:28;3.63;;;1.95;;
351;SDS011;164;50.784;6.496;2024-03-17T07:10:56;2.22;;;2.05;;
351;SDS011;164;50.784;6.496;2024-03-17T07:13:24;1.95;;;1.40;;
351;SDS011;164;50.784;6.496;2024-03-17T07:15:55;2.92;;;2.03;;
351;SDS011;164;50.784;6.496;2024-03-17T07:18:22;2.63;;;2.05;;
351;SDS011;164;50.784;6.496;2024-03-17T07:20:51;2.35;;;1.73;;
351;SDS011;164;50.784;6.496;2024-03-17T07:23:19;2.70;;;1.80;;
351;SDS011;164;50.784;6.496;2024-03-17T07:25:52;3.35;;;2.78;;
351;SDS011;164;50.784;6.496;2024-03-17T07:28:20;4.13;;;2.78;;
351;SDS011;164;50.784;6.496;2024-03-17T07:30:48;3.05;;;2.67;;
351;SDS011;164;50.784;6.496;2024-03-17T07:33:17;5.45;;;2.00;;
351;SDS011;164;50.784;6.496;2024-03-17T07:35:47;2.88;;;2.20;;
351;SDS011;164;50.784;6.496;2024-03-17T07:38:14;4.47;;;2.65;;
351;SDS011;164;50.784;6.496;2024-03-17T07:40:42;3.03;;;1.90;;
351;SDS011;164;50.784;6.496;2024-03-17T07:43:09;3.67;;;2.63;;
351;SDS011;164;50.784;6.496;2024-03-17T07:45:37;1.98;;;1.88;;
351;SDS011;164;50.784;6.496;2024-03-17T07:48:04;2.63;;;1.88;;
351;SDS011;164;50.784;6.496;2024-03-17T07:50:33;2.80;;;2.20;;
351;SDS011;164;50.784;6.496;2024-03-17T07:53:00;3.10;;;2.63;;
351;SDS011;164;50.784;6.496;2024-03-17T07:55:28;2.42;;;2.00;;
351;SDS011;164;50.784;6.496;2024-03-17T07:57:59;1.33;;;1.20;;
351;SDS011;164;50.784;6.496;2024-03-17T08:00:26;2.60;;;2.00;;
351;SDS011;164;50.784;6.496;2024-03-17T08:02:53;1.80;;;1.33;;
351;SDS011;164;50.784;6.496;2024-03-17T08:05:21;2.90;;;2.33;;
351;SDS011;164;50.784;6.496;2024-03-17T08:07:49;2.97;;;2.22;;
351;SDS011;164;50.784;6.496;2024-03-17T08:10:17;2.75;;;1.70;;
351;SDS011;164;50.784;6.496;2024-03-17T08:12:44;3.22;;;2.45;;
351;SDS011;164;50.784;6.496;2024-03-17T08:15:11;1.77;;;1.65;;
351;SDS011;164;50.784;6.496;2024-03-17T08:17:39;2.90;;;2.35;;
351;SDS011;164;50.784;6.496;2024-03-17T08:20:06;2.83;;;2.10;;
351;SDS011;164;50.784;6.496;2024-03-17T08:22:34;1.98;;;1.83;;
351;SDS011;164;50.784;6.496;2024-03-17T08:25:02;2.65;;;2.42;;
351;SDS011;164;50.784;6.496;2024-03-17T08:27:30;2.80;;;2.20;;
351;SDS011;164;50.784;6.496;2024-03-17T08:29:57;3.60;;;2.40;;
351;SDS011;164;50.784;6.496;2024-03-17T08:32:25;3.33;;;2.30;;
351;SDS011;164;50.784;6.496;2024-03-17T08:34:52;3.47;;;2.30;;
351;SDS011;164;50.784;6.496;2024-03-17T08:37:19;2.63;;;2.50;;
351;SDS011;164;50.784;6.496;2024-03-17T08:39:50;3.63;;;2.33;;
351;SDS011;164;50.784;6.496;2024-03-17T08:42:19;2.75;;;2.25;;
351;SDS011;164;50.784;6.496;2024-03-17T08:44:46;5.20;;;2.15;;
351;SDS011;164;50.784;6.496;2024-03-17T08:47:14;2.67;;;2.10;;
351;SDS011;164;50.784;6.496;2024-03-17T08:49:41;2.80;;;2.58;;
351;SDS011;164;50.784;6.496;2024-03-17T08:52:08;2.30;;;2.00;;
351;SDS011;164;50.784;6.496;2024-03-17T08:54:36;2.22;;;1.90;;
351;SDS011;164;50.784;6.496;2024-03-17T08:57:04;4.00;;;2.60;;
351;SDS011;164;50.784;6.496;2024-03-17T08:59:32;3.65;;;2.85;;
351;SDS011;164;50.784;6.496;2024-03-17T09:02:00;4.10;;;2.42;;
351;SDS011;164;50.784;6.496;2024-03-17T09:04:28;5.68;;;2.05;;
351;SDS011;164;50.784;6.496;2024-03-17T09:06:55;3.20;;;2.10;;
351;SDS011;164;50.784;6.496;2024-03-17T09:09:25;2.78;;;2.38;;
351;SDS011;164;50.784;6.496;2024-03-17T09:11:53;3.13;;;2.33;;
351;SDS011;164;50.784;6.496;2024-03-17T09:14:20;4.57;;;2.63;;
351;SDS011;164;50.784;6.496;2024-03-17T09:16:49;2.90;;;2.13;;
351;SDS011;164;50.784;6.496;2024-03-17T09:19:17;3.95;;;2.40;;
351;SDS011;164;50.784;6.496;2024-03-17T09:21:44;4.47;;;2.25;;
351;SDS011;164;50.784;6.496;2024-03-17T09:24:12;4.40;;;2.10;;
351;SDS011;164;50.784;6.496;2024-03-17T09:26:40;2.30;;;2.15;;
351;SDS011;164;50.784;6.496;2024-03-17T09:29:07;2.80;;;2.20;;
351;SDS011;164;50.784;6.496;2024-03-17T09:31:35;4.25;;;2.42;;
351;SDS011;164;50.784;6.496;2024-03-17T09:34:05;2.50;;;2.30;;
351;SDS011;164;50.784;6.496;2024-03-17T09:36:32;2.47;;;2.17;;
351;SDS011;164;50.784;6.496;2024-03-17T09:39:01;3.13;;;2.28;;
351;SDS011;164;50.784;6.496;2024-03-17T09:41:30;2.95;;;2.80;;
351;SDS011;164;50.784;6.496;2024-03-17T09:43:57;3.63;;;2.45;;
351;SDS011;164;50.784;6.496;2024-03-17T09:46:26;3.35;;;2.03;;
351;SDS011;164;50.784;6.496;2024-03-17T09:48:54;3.45;;;2.70;;
351;SDS011;164;50.784;6.496;2024-03-17T09:51:24;3.13;;;1.85;;
351;SDS011;164;50.784;6.496;2024-03-17T09:53:52;2.05;;;1.65;;
351;SDS011;164;50.784;6.496;2024-03-17T09:56:22;2.20;;;2.05;;
351;SDS011;164;50.784;6.496;2024-03-17T09:58:50;4.00;;;2.15;;
351;SDS011;164;50.784;6.496;2024-03-17T10:01:17;2.20;;;2.03;;
351;SDS011;164;50.784;6.496;2024-03-17T10:03:45;2.92;;;2.10;;
351;SDS011;164;50.784;6.496;2024-03-17T10:06:16;4.75;;;3.05;;
351;SDS011;164;50.784;6.496;2024-03-17T10:08:46;2.27;;;2.13;;
351;SDS011;164;50.784;6.496;2024-03-17T10:11:15;3.38;;;3.10;;
351;SDS011;164;50.784;6.496;2024-03-17T10:13:42;3.42;;;2.90;;
351;SDS011;164;50.784;6.496;2024-03-17T10:16:17;2.72;;;2.40;;
351;SDS011;164;50.784;6.496;2024-03-17T10:18:47;2.75;;;2.47;;
351;SDS011;164;50.784;6.496;2024-03-17T10:21:21;2.55;;;2.35;;
351;SDS011;164;50.784;6.496;2024-03-17T10:23:56;4.07;;;2.95;;
351;SDS011;164;50.784;6.496;2024-03-17T10:26:32;2.88;;;1.83;;
351;SDS011;164;50.784;6.496;2024-03-17T10:29:00;2.97;;;2.80;;
351;SDS011;164;50.784;6.496;2024-03-17T10:31:27;2.75;;;2.58;;
351;SDS011;164;50.784;6.496;2024-03-17T10:34:00;3.75;;;2.50;;
351;SDS011;164;50.784;6.496;2024-03-17T10:36:28;3.35;;;2.95;;
351;SDS011;164;50.784;6.496;2024-03-17T10:38:56;2.80;;;2.40;;
351;SDS011;164;50.784;6.496;2024-03-17T10:41:24;3.92;;;2.75;;
351;SDS011;164;50.784;6.496;2024-03-17T10:43:56;2.65;;;2.45;;
351;SDS011;164;50.784;6.496;2024-03-17T10:46:24;2.92;;;2.10;;
351;SDS011;164;50.784;6.496;2024-03-17T10:48:52;2.58;;;2.38;;
351;SDS011;164;50.784;6.496;2024-03-17T10:51:20;2.67;;;2.00;;
351;SDS011;164;50.784;6.496;2024-03-17T10:53:47;4.13;;;2.50;;
351;SDS011;164;50.784;6.496;2024-03-17T10:56:16;3.80;;;3.13;;
351;SDS011;164;50.784;6.496;2024-03-17T10:58:45;3.97;;;3.05;;
351;SDS011;164;50.784;6.496;2024-03-17T11:01:17;3.08;;;2.88;;
351;SDS011;164;50.784;6.496;2024-03-17T11:03:47;3.40;;;2.72;;
351;SDS011;164;50.784;6.496;2024-03-17T11:06:15;3.20;;;2.75;;
351;SDS011;164;50.784;6.496;2024-03-17T11:08:43;2.75;;;2.40;;
351;SDS011;164;50.784;6.496;2024-03-17T11:11:10;3.22;;;2.95;;
351;SDS011;164;50.784;6.496;2024-03-17T11:13:40;3.42;;;2.55;;
351;SDS011;164;50.784;6.496;2024-03-17T11:16:24;3.10;;;2.75;;
351;SDS011;164;50.784;6.496;2024-03-17T11:18:52;3.58;;;2.72;;
351;SDS011;164;50.784;6.496;2024-03-17T11:21:24;4.63;;;3.03;;
351;SDS011;164;50.784;6.496;2024-03-17T11:24:00;2.35;;;1.80;;
351;SDS011;164;50.784;6.496;2024-03-17T11:26:28;3.28;;;2.20;;
351;SDS011;164;50.784;6.496;2024-03-17T11:28:57;3.60;;;2.13;;
351;SDS011;164;50.784;6.496;2024-03-17T11:31:35;4.07;;;3.00;;
351;SDS011;164;50.784;6.496;2024-03-17T11:34:05;3.30;;;2.70;;
351;SDS011;164;50.784;6.496;2024-03-17T11:36:37;3.72;;;3.00;;
351;SDS011;164;50.784;6.496;2024-03-17T11:39:04;3.05;;;2.53;;
351;SDS011;164;50.784;6.496;2024-03-17T11:41:40;3.45;;;2.92;;
351;SDS011;164;50.784;6.496;2024-03-17T11:44:14;3.42;;;2.60;;
351;SDS011;164;50.784;6.496;2024-03-17T11:46:43;3.00;;;2.85;;
351;SDS011;164;50.784;6.496;2024-03-17T11:49:15;4.43;;;2.53;;
351;SDS011;164;50.784;6.496;2024-03-17T11:51:43;2.47;;;2.20;;
351;SDS011;164;50.784;6.496;2024-03-17T11:54:12;2.60;;;2.40;;
351;SDS011;164;50.784;6.496;2024-03-17T11:56:41;3.05;;;2.35;;
351;SDS011;164;50.784;6.496;2024-03-17T11:59:09;2.70;;;2.15;;
351;SDS011;164;50.784;6.496;2024-03-17T12:01:36;3.47;;;2.20;;
351;SDS011;164;50.784;6.496;2024-03-17T12:04:04;1.83;;;1.70;;
351;SDS011;164;50.784;6.496;2024-03-17T12:06:30;3.70;;;2.50;;
351;SDS011;164;50.784;6.496;2024-03-17T12:09:07;3.25;;;2.50;;
351;SDS011;164;50.784;6.496;2024-03-17T12:11:35;2.38;;;2.08;;
351;SDS011;164;50.784;6.496;2024-03-17T12:14:15;3.20;;;1.60;;
351;SDS011;164;50.784;6.496;2024-03-17T12:16:59;4.32;;;2.30;;
351;SDS011;164;50.784;6.496;2024-03-17T12:19:27;1.90;;;1.88;;
351;SDS011;164;50.784;6.496;2024-03-17T12:21:56;2.83;;;1.95;;
351;SDS011;164;50.784;6.496;2024-03-17T12:24:25;3.55;;;2.15;;
351;SDS011;164;50.784;6.496;2024-03-17T12:26:52;2.60;;;1.80;;
351;SDS011;164;50.784;6.496;2024-03-17T12:29:24;3.38;;;2.08;;
351;SDS011;164;50.784;6.496;2024-03-17T12:31:54;4.82;;;1.20;;
351;SDS011;164;50.784;6.496;2024-03-17T12:34:22;2.10;;;2.00;;
351;SDS011;164;50.784;6.496;2024-03-17T12:36:48;2.63;;;1.35;;
351;SDS011;164;50.784;6.496;2024-03-17T12:39:17;2.45;;;1.63;;
351;SDS011;164;50.784;6.496;2024-03-17T12:41:44;1.55;;;1.33;;
351;SDS011;164;50.784;6.496;2024-03-17T12:44:21;2.58;;;2.25;;
351;SDS011;164;50.784;6.496;2024-03-17T12:46:47;4.20;;;2.20;;
351;SDS011;164;50.784;6.496;2024-03-17T12:49:16;3.75;;;2.25;;
351;SDS011;164;50.784;6.496;2024-03-17T12:51:42;3.45;;;2.47;;
351;SDS011;164;50.784;6.496;2024-03-17T12:54:12;2.60;;;2.40;;
351;SDS011;164;50.784;6.496;2024-03-17T12:56:38;7.10;;;2.20;;
351;SDS011;164;50.784;6.496;2024-03-17T12:59:23;2.83;;;2.33;;
351;SDS011;164;50.784;6.496;2024-03-17T13:02:09;3.85;;;2.15;;
351;SDS011;164;50.784;6.496;2024-03-17T13:04:38;3.05;;;2.20;;
351;SDS011;164;50.784;6.496;2024-03-17T13:07:11;2.75;;;2.42;;
351;SDS011;164;50.784;6.496;2024-03-17T13:09:39;5.60;;;2.40;;
351;SDS011;164;50.784;6.496;2024-03-17T13:12:13;4.93;;;2.05;;
351;SDS011;164;50.784;6.496;2024-03-17T13:14:41;2.67;;;2.25;;
351;SDS011;164;50.784;6.496;2024-03-17T13:17:08;3.25;;;2.92;;
351;SDS011;164;50.784;6.496;2024-03-17T13:19:46;4.15;;;2.50;;
351;SDS011;164;50.784;6.496;2024-03-17T13:22:14;3.95;;;3.17;;
351;SDS011;164;50.784;6.496;2024-03-17T13:24:41;1.98;;;1.83;;
351;SDS011;164;50.784;6.496;2024-03-17T13:27:08;2.35;;;2.15;;
351;SDS011;164;50.784;6.496;2024-03-17T13:29:35;2.95;;;2.30;;
351;SDS011;164;50.784;6.496;2024-03-17T13:32:03;2.95;;;1.60;;
351;SDS011;164;50.784;6.496;2024-03-17T13:34:31;2.90;;;2.75;;
351;SDS011;164;50.784;6.496;2024-03-17T13:37:00;2.47;;;2.30;;
351;SDS011;164;50.784;6.496;2024-03-17T13:39:29;5.70;;;2.35;;
351;SDS011;164;50.784;6.496;2024-03-17T13:41:56;2.85;;;1.98;;
351;SDS011;164;50.784;6.496;2024-03-17T13:44:27;5.50;;;2.70;;
351;SDS011;164;50.784;6.496;2024-03-17T13:46:55;1.80;;;1.80;;
351;SDS011;164;50.784;6.496;2024-03-17T13:49:22;3.55;;;2.90;;
351;SDS011;164;50.784;6.496;2024-03-17T13:51:50;3.95;;;2.15;;
351;SDS011;164;50.784;6.496;2024-03-17T13:54:19;3.15;;;2.42;;
351;SDS011;164;50.784;6.496;2024-03-17T13:56:46;2.90;;;2.60;;
351;SDS011;164;50.784;6.496;2024-03-17T13:59:14;2.60;;;2.40;;
351;SDS011;164;50.784;6.496;2024-03-17T14:01:41;2.28;;;1.73;;
351;SDS011;164;50.784;6.496;2024-03-17T14:04:11;2.10;;;1.90;;
351;SDS011;164;50.784;6.496;2024-03-17T14:06:40;1.80;;;1.35;;
351;SDS011;164;50.784;6.496;2024-03-17T14:09:07;1.48;;;0.98;;
351;SDS011;164;50.784;6.496;2024-03-17T14:11:35;1.50;;;1.27;;
351;SDS011;164;50.784;6.496;2024-03-17T14:14:03;1.10;;;1.02;;
351;SDS011;164;50.784;6.496;2024-03-17T14:16:31;1.38;;;0.98;;
351;SDS011;164;50.784;6.496;2024-03-17T14:18:59;2.78;;;1.23;;
351;SDS011;164;50.784;6.496;2024-03-17T14:21:26;1.48;;;1.17;;
351;SDS011;164;50.784;6.496;2024-03-17T14:23:54;1.17;;;0.88;;
351;SDS011;164;50.784;6.496;2024-03-17T14:26:21;1.20;;;1.20;;
351;SDS011;164;50.784;6.496;2024-03-17T14:28:50;1.55;;;1.02;;
351;SDS011;164;50.784;6.496;2024-03-17T14:31:19;4.43;;;1.05;;
351;SDS011;164;50.784;6.496;2024-03-17T14:33:46;3.25;;;0.80;;
351;SDS011;164;50.784;6.496;2024-03-17T14:36:13;0.80;;;0.50;;
351;SDS011;164;50.784;6.496;2024-03-17T14:38:40;1.25;;;0.70;;
351;SDS011;164;50.784;6.496;2024-03-17T14:41:08;2.25;;;0.82;;
351;SDS011;164;50.784;6.496;2024-03-17T14:43:36;0.82;;;0.80;;
351;SDS011;164;50.784;6.496;2024-03-17T14:46:05;1.23;;;1.13;;
351;SDS011;164;50.784;6.496;2024-03-17T14:48:35;0.95;;;0.70;;
351;SDS011;164;50.784;6.496;2024-03-17T14:51:03;1.40;;;1.02;;
351;SDS011;164;50.784;6.496;2024-03-17T14:53:30;0.80;;;0.55;;
351;SDS011;164;50.784;6.496;2024-03-17T14:55:57;0.85;;;0.70;;
351;SDS011;164;50.784;6.496;2024-03-17T14:58:24;0.93;;;0.88;;
351;SDS011;164;50.784;6.496;2024-03-17T15:00:51;3.13;;;1.38;;
351;SDS011;164;50.784;6.496;2024-03-17T15:03:20;0.90;;;0.82;;
351;SDS011;164;50.784;6.496;2024-03-17T15:05:47;1.17;;;1.02;;
351;SDS011;164;50.784;6.496;2024-03-17T15:08:16;1.55;;;1.08;;
351;SDS011;164;50.784;6.496;2024-03-17T15:10:44;0.95;;;0.82;;
351;SDS011;164;50.784;6.496;2024-03-17T15:13:11;2.75;;;1.10;;
351;SDS011;164;50.784;6.496;2024-03-17T15:15:39;1.02;;;0.90;;
351;SDS011;164;50.784;6.496;2024-03-17T15:18:09;0.85;;;0.70;;
351;SDS011;164;50.784;6.496;2024-03-17T15:20:38;1.00;;;1.00;;
351;SDS011;164;50.784;6.496;2024-03-17T15:23:05;1.00;;;0.80;;
351;SDS011;164;50.784;6.496;2024-03-17T15:25:32;1.38;;;1.00;;
351;SDS011;164;50.784;6.496;2024-03-17T15:28:00;1.73;;;0.80;;
351;SDS011;164;50.784;6.496;2024-03-17T15:30:28;2.30;;;0.68;;
351;SDS011;164;50.784;6.496;2024-03-17T15:32:56;0.90;;;0.60;;
351;SDS011;164;50.784;6.496;2024-03-17T15:35:23;0.70;;;0.50;;
351;SDS011;164;50.784;6.496;2024-03-17T15:37:56;0.70;;;0.50;;
351;SDS011;164;50.784;6.496;2024-03-17T15:40:23;0.70;;;0.70;;
351;SDS011;164;50.784;6.496;2024-03-17T15:42:51;2.00;;;1.08;;
351;SDS011;164;50.784;6.496;2024-03-17T15:45:19;1.23;;;0.90;;
351;SDS011;164;50.784;6.496;2024-03-17T15:47:48;0.88;;;0.55;;
351;SDS011;164;50.784;6.496;2024-03-17T15:50:15;1.55;;;1.05;;
351;SDS011;164;50.784;6.496;2024-03-17T15:52:42;2.20;;;1.58;;